createdAt,value
2018-12-21T00:01:49.232Z,4.70
2018-12-21T00:04:17.501Z,4.70
2018-12-21T00:06:45.678Z,4.70
2018-12-21T00:09:13.937Z,4.70
2018-12-21T00:11:43.120Z,4.70
2018-12-21T00:14:12.404Z,4.70
2018-12-21T00:16:40.573Z,4.70
2018-12-21T00:19:08.777Z,4.60
2018-12-21T00:21:37.036Z,4.60
2018-12-21T00:24:06.300Z,4.70
2018-12-21T00:26:34.479Z,4.70
2018-12-21T00:29:03.004Z,4.80
2018-12-21T00:31:36.605Z,4.70
2018-12-21T00:34:10.222Z,4.70
2018-12-21T00:36:50.321Z,4.70
2018-12-21T00:39:29.937Z,4.60
2018-12-21T00:48:00.582Z,4.70
2018-12-21T00:50:34.269Z,4.70
2018-12-21T00:53:06.003Z,4.60
2018-12-21T00:55:40.257Z,4.60
2018-12-21T00:58:08.469Z,4.70
2018-12-21T01:00:37.560Z,4.70
2018-12-21T01:03:06.827Z,4.70
2018-12-21T01:05:35.233Z,4.80
2018-12-21T01:08:03.945Z,4.90
2018-12-21T01:10:32.911Z,4.80
2018-12-21T01:13:02.549Z,4.90
2018-12-21T01:15:30.864Z,4.80
2018-12-21T01:17:59.073Z,4.70
2018-12-21T01:20:27.297Z,4.80
2018-12-21T01:25:53.650Z,4.70
2018-12-21T01:28:21.820Z,4.70
2018-12-21T01:30:50.223Z,4.70
2018-12-21T01:33:18.631Z,4.70
2018-12-21T01:35:47.009Z,4.70
2018-12-21T01:38:15.412Z,4.70
2018-12-21T01:40:43.593Z,4.70
2018-12-21T01:43:11.756Z,4.70
2018-12-21T01:45:39.917Z,4.70
2018-12-21T01:48:08.180Z,4.80
2018-12-21T01:53:50.963Z,4.80
2018-12-21T01:56:19.180Z,4.80
2018-12-21T01:58:47.374Z,4.80
2018-12-21T02:01:15.666Z,4.80
2018-12-21T02:03:43.837Z,4.80
2018-12-21T02:06:12.025Z,4.80
2018-12-21T02:08:40.209Z,4.80
2018-12-21T02:11:09.137Z,4.70
2018-12-21T02:13:37.409Z,4.70
2018-12-21T02:16:05.740Z,4.80
2018-12-21T02:18:33.983Z,4.80
2018-12-21T02:21:02.381Z,4.80
2018-12-21T02:23:33.728Z,4.90
2018-12-21T02:26:02.739Z,4.80
2018-12-21T02:28:31.407Z,4.70
2018-12-21T02:30:59.712Z,4.80
2018-12-21T02:33:28.063Z,4.80
2018-12-21T02:35:56.318Z,4.80
2018-12-21T02:38:24.867Z,4.80
2018-12-21T02:40:53.400Z,4.80
2018-12-21T02:43:21.751Z,4.80
2018-12-21T02:45:49.932Z,4.80
2018-12-21T02:48:18.112Z,4.80
2018-12-21T02:50:46.305Z,4.80
2018-12-21T02:53:14.564Z,4.80
2018-12-21T02:55:42.757Z,4.90
2018-12-21T02:58:11.106Z,4.80
2018-12-21T03:00:39.342Z,4.80
2018-12-21T03:03:07.637Z,4.90
2018-12-21T03:05:36.073Z,4.90
2018-12-21T03:08:04.341Z,4.80
2018-12-21T03:10:32.492Z,4.80
2018-12-21T03:13:00.690Z,4.90
2018-12-21T03:15:28.873Z,4.90
2018-12-21T03:17:57.349Z,4.80
2018-12-21T03:20:26.303Z,4.80
2018-12-21T03:22:54.984Z,4.90
2018-12-21T03:25:23.229Z,4.80
2018-12-21T03:27:51.404Z,4.90
2018-12-21T03:30:19.590Z,4.90
2018-12-21T03:32:47.828Z,4.90
2018-12-21T03:35:20.226Z,5.00
2018-12-21T03:37:48.417Z,4.90
2018-12-21T03:40:16.653Z,5.00
2018-12-21T03:42:44.921Z,4.90
2018-12-21T03:45:15.248Z,5.00
2018-12-21T03:47:43.416Z,5.00
2018-12-21T03:50:12.000Z,5.00
2018-12-21T03:52:41.717Z,4.90
2018-12-21T03:55:09.981Z,4.90
2018-12-21T03:57:38.180Z,4.90
2018-12-21T04:00:06.568Z,5.00
2018-12-21T04:02:34.928Z,4.90
2018-12-21T04:05:04.915Z,5.00
2018-12-21T04:07:33.082Z,5.00
2018-12-21T04:10:03.214Z,5.00
2018-12-21T04:12:31.473Z,4.90
2018-12-21T04:14:59.698Z,5.00
2018-12-21T04:17:27.978Z,5.00
2018-12-21T04:19:58.193Z,5.00
2018-12-21T04:22:33.946Z,5.00
2018-12-21T04:24:56.691Z,5.00
2018-12-21T04:27:24.869Z,5.00
2018-12-21T04:29:53.033Z,5.00
2018-12-21T04:32:21.217Z,5.00
2018-12-21T04:34:49.376Z,4.90
2018-12-21T04:37:17.620Z,5.00
2018-12-21T04:39:45.773Z,5.00
2018-12-21T04:42:13.940Z,5.00
2018-12-21T04:44:42.314Z,4.90
2018-12-21T04:47:10.501Z,5.00
2018-12-21T04:49:38.761Z,5.00
2018-12-21T04:52:07.148Z,5.00
2018-12-21T04:54:35.334Z,5.10
2018-12-21T04:57:03.856Z,5.10
2018-12-21T04:59:32.020Z,5.00
2018-12-21T05:02:00.340Z,5.00
2018-12-21T05:04:28.530Z,5.00
2018-12-21T05:06:56.772Z,5.10
2018-12-21T05:09:24.934Z,5.10
2018-12-21T05:11:53.169Z,5.00
2018-12-21T05:14:21.723Z,5.00
2018-12-21T05:16:49.911Z,5.10
2018-12-21T05:19:18.439Z,5.10
2018-12-21T05:21:46.609Z,5.10
2018-12-21T05:24:15.125Z,5.10
2018-12-21T05:26:43.348Z,5.10
2018-12-21T05:29:11.904Z,5.20
2018-12-21T05:31:40.213Z,5.20
2018-12-21T05:34:08.609Z,5.30
2018-12-21T05:36:37.185Z,5.30
2018-12-21T05:39:06.077Z,5.30
2018-12-21T05:41:36.045Z,5.30
2018-12-21T05:44:05.348Z,5.30
2018-12-21T05:46:33.592Z,5.30
2018-12-21T05:49:02.616Z,5.30
2018-12-21T05:51:30.939Z,5.30
2018-12-21T05:53:59.107Z,5.40
2018-12-21T05:56:27.254Z,5.40
2018-12-21T05:59:03.249Z,5.40
2018-12-21T06:01:31.486Z,5.50
2018-12-21T06:03:59.732Z,5.50
2018-12-21T06:06:27.885Z,5.50
2018-12-21T06:08:56.132Z,5.50
2018-12-21T06:11:24.295Z,5.40
2018-12-21T06:13:52.472Z,5.50
2018-12-21T06:16:21.125Z,5.40
2018-12-21T06:18:49.364Z,5.50
2018-12-21T06:21:17.887Z,5.50
2018-12-21T06:23:47.326Z,5.60
2018-12-21T06:26:15.949Z,5.50
2018-12-21T06:28:53.147Z,5.50
2018-12-21T06:31:21.737Z,5.50
2018-12-21T06:33:50.197Z,5.40
2018-12-21T06:36:18.365Z,5.50
2018-12-21T06:38:46.798Z,5.50
2018-12-21T06:41:15.522Z,5.50
2018-12-21T06:43:43.866Z,5.50
2018-12-21T06:46:14.336Z,5.40
2018-12-21T06:48:43.010Z,5.50
2018-12-21T06:51:11.444Z,5.40
2018-12-21T06:53:40.412Z,5.30
2018-12-21T06:56:09.129Z,5.30
2018-12-21T06:58:37.603Z,5.30
2018-12-21T07:01:06.197Z,5.40
2018-12-21T07:03:35.388Z,5.30
2018-12-21T07:06:03.573Z,5.30
2018-12-21T07:08:31.756Z,5.20
2018-12-21T07:10:59.944Z,5.30
2018-12-21T07:13:28.375Z,5.20
2018-12-21T07:15:56.552Z,5.30
2018-12-21T07:18:25.050Z,5.20
2018-12-21T07:20:53.488Z,5.20
2018-12-21T07:23:27.014Z,5.10
2018-12-21T07:25:51.946Z,5.20
2018-12-21T07:28:20.129Z,5.20
2018-12-21T07:30:48.477Z,5.20
2018-12-21T07:33:16.901Z,5.20
2018-12-21T07:35:45.105Z,5.20
2018-12-21T07:38:13.398Z,5.20
2018-12-21T07:40:41.724Z,5.20
2018-12-21T07:43:10.030Z,5.30
2018-12-21T07:45:38.216Z,5.30
2018-12-21T07:48:06.425Z,5.30
2018-12-21T07:50:34.680Z,5.30
2018-12-21T07:53:04.004Z,5.40
2018-12-21T07:55:32.199Z,5.40
2018-12-21T07:58:00.497Z,5.40
2018-12-21T08:00:28.884Z,5.40
2018-12-21T08:02:57.084Z,5.30
2018-12-21T08:05:25.380Z,5.30
2018-12-21T08:07:53.583Z,5.30
2018-12-21T08:10:21.771Z,5.30
2018-12-21T08:12:50.206Z,5.30
2018-12-21T08:15:18.457Z,5.40
2018-12-21T08:17:46.652Z,5.40
2018-12-21T08:20:15.564Z,5.30
2018-12-21T08:22:43.992Z,5.20
2018-12-21T08:25:12.265Z,5.30
2018-12-21T08:27:40.609Z,5.30
2018-12-21T08:30:10.023Z,5.30
2018-12-21T08:32:38.222Z,5.30
2018-12-21T08:35:06.649Z,5.30
2018-12-21T08:37:34.822Z,5.30
2018-12-21T08:40:04.432Z,5.20
2018-12-21T08:42:32.907Z,5.30
2018-12-21T08:45:01.580Z,5.30
2018-12-21T08:47:29.770Z,5.30
2018-12-21T08:49:57.964Z,5.30
2018-12-21T08:52:26.525Z,5.30
2018-12-21T08:54:54.800Z,5.30
2018-12-21T08:57:23.076Z,5.30
2018-12-21T08:59:51.276Z,5.30
2018-12-21T09:02:21.071Z,5.30
2018-12-21T09:04:49.552Z,5.30
2018-12-21T09:07:17.934Z,5.30
2018-12-21T09:09:46.903Z,5.30
2018-12-21T09:12:15.708Z,5.30
2018-12-21T09:14:44.264Z,5.30
2018-12-21T09:17:12.405Z,5.40
2018-12-21T09:19:40.595Z,5.40
2018-12-21T09:22:08.953Z,5.40
2018-12-21T09:24:37.224Z,5.50
2018-12-21T09:27:05.416Z,5.60
2018-12-21T09:29:33.596Z,5.60
2018-12-21T09:32:05.225Z,5.60
2018-12-21T09:34:32.932Z,5.70
2018-12-21T09:37:01.592Z,5.70
2018-12-21T09:39:29.999Z,5.70
2018-12-21T09:41:58.186Z,5.70
2018-12-21T09:44:26.364Z,5.70
2018-12-21T09:46:54.544Z,5.70
2018-12-21T09:49:22.715Z,5.70
2018-12-21T09:51:50.988Z,5.80
2018-12-21T09:54:19.246Z,5.90
2018-12-21T09:56:47.428Z,6.00
2018-12-21T09:59:15.908Z,5.90
2018-12-21T10:01:44.312Z,6.00
2018-12-21T10:04:12.480Z,6.00
2018-12-21T10:06:40.674Z,6.00
2018-12-21T10:09:08.939Z,6.10
2018-12-21T10:11:37.132Z,6.20
2018-12-21T10:14:05.309Z,6.20
2018-12-21T10:16:33.602Z,6.20
2018-12-21T10:19:02.320Z,6.20
2018-12-21T10:21:30.491Z,6.30
2018-12-21T10:23:58.700Z,6.30
2018-12-21T10:26:26.956Z,6.30
2018-12-21T10:28:55.148Z,6.40
2018-12-21T10:31:23.345Z,6.40
2018-12-21T10:33:51.545Z,6.40
2018-12-21T10:36:19.815Z,6.50
2018-12-21T10:38:47.983Z,6.50
2018-12-21T10:41:16.507Z,6.60
2018-12-21T10:43:44.685Z,6.60
2018-12-21T10:46:13.094Z,6.60
2018-12-21T10:48:41.302Z,6.70
2018-12-21T10:51:09.747Z,6.80
2018-12-21T10:53:39.390Z,6.80
2018-12-21T10:56:07.779Z,6.70
2018-12-21T10:58:35.952Z,6.60
2018-12-21T11:01:04.225Z,6.60
2018-12-21T11:03:32.425Z,6.70
2018-12-21T11:06:01.369Z,6.70
2018-12-21T11:08:30.335Z,6.70
2018-12-21T11:11:01.191Z,6.80
2018-12-21T11:13:29.344Z,6.80
2018-12-21T11:15:57.753Z,6.90
2018-12-21T11:18:25.916Z,6.80
2018-12-21T11:20:54.109Z,6.90
2018-12-21T11:23:22.448Z,6.90
2018-12-21T11:25:50.812Z,6.90
2018-12-21T11:28:25.387Z,6.90
2018-12-21T11:30:49.179Z,6.90
2018-12-21T11:33:17.893Z,7.00
2018-12-21T11:35:46.069Z,7.00
2018-12-21T11:38:14.272Z,7.00
2018-12-21T11:40:42.565Z,7.00
2018-12-21T11:43:10.821Z,7.00
2018-12-21T11:45:39.460Z,7.10
2018-12-21T11:48:07.664Z,7.10
2018-12-21T11:50:35.836Z,7.10
2018-12-21T11:53:04.605Z,7.10
2018-12-21T11:55:32.878Z,7.10
2018-12-21T11:58:01.581Z,7.10
2018-12-21T12:00:29.846Z,7.10
2018-12-21T12:02:58.020Z,7.10
2018-12-21T12:05:26.654Z,7.20
2018-12-21T12:07:54.912Z,7.30
2018-12-21T12:10:23.092Z,7.30
2018-12-21T12:12:51.277Z,7.20
2018-12-21T12:15:19.445Z,7.20
2018-12-21T12:17:47.628Z,7.20
2018-12-21T12:20:15.824Z,7.20
2018-12-21T12:22:44.003Z,7.30
2018-12-21T12:25:12.377Z,7.30
2018-12-21T12:27:40.554Z,7.30
2018-12-21T12:30:10.224Z,7.30
2018-12-21T12:32:38.422Z,7.30
2018-12-21T12:35:07.801Z,7.40
2018-12-21T12:37:35.972Z,7.40
2018-12-21T12:40:05.845Z,7.40
2018-12-21T12:42:34.139Z,7.60
2018-12-21T12:45:04.585Z,7.60
2018-12-21T12:47:32.846Z,7.70
2018-12-21T12:50:03.192Z,7.70
2018-12-21T12:52:31.474Z,7.60
2018-12-21T12:57:30.264Z,7.80
2018-12-21T12:59:58.455Z,7.80
2018-12-21T13:02:26.942Z,7.80
2018-12-21T13:04:56.290Z,7.70
2018-12-21T13:07:24.488Z,7.70
2018-12-21T13:09:52.877Z,7.70
2018-12-21T13:12:21.485Z,7.80
2018-12-21T13:14:50.737Z,7.80
2018-12-21T13:17:18.925Z,7.80
2018-12-21T13:19:47.096Z,7.80
2018-12-21T13:22:15.908Z,7.80
2018-12-21T13:24:45.377Z,7.90
2018-12-21T13:27:13.746Z,8.00
2018-12-21T13:29:42.029Z,7.90
2018-12-21T13:32:10.215Z,8.00
2018-12-21T13:34:39.603Z,8.00
2018-12-21T13:37:07.868Z,8.00
2018-12-21T13:39:36.057Z,8.00
2018-12-21T13:42:04.244Z,8.00
2018-12-21T13:44:32.448Z,8.00
2018-12-21T13:47:02.624Z,8.00
2018-12-21T13:49:30.816Z,8.00
2018-12-21T13:51:59.028Z,8.00
2018-12-21T13:54:27.815Z,7.90
2018-12-21T13:56:56.217Z,8.00
2018-12-21T13:59:24.471Z,8.00
2018-12-21T14:01:52.950Z,8.00
2018-12-21T14:04:22.965Z,8.10
2018-12-21T14:06:51.348Z,8.10
2018-12-21T14:09:19.610Z,8.10
2018-12-21T14:11:47.806Z,8.10
2018-12-21T14:14:16.868Z,8.00
2018-12-21T14:16:45.141Z,8.00
2018-12-21T14:19:13.569Z,8.00
2018-12-21T14:21:41.778Z,8.00
2018-12-21T14:27:00.628Z,8.00
2018-12-21T14:29:28.804Z,8.00
2018-12-21T14:31:56.988Z,8.00
2018-12-21T14:34:25.400Z,8.10
2018-12-21T14:36:53.796Z,8.00
2018-12-21T14:39:22.148Z,8.00
2018-12-21T14:41:50.342Z,8.00
2018-12-21T14:44:18.579Z,8.00
2018-12-21T14:46:46.768Z,8.00
2018-12-21T14:49:14.940Z,8.00
2018-12-21T14:51:43.211Z,8.10
2018-12-21T14:54:11.465Z,8.00
2018-12-21T14:56:39.705Z,8.10
2018-12-21T14:59:07.960Z,8.10
2018-12-21T15:01:36.146Z,8.10
2018-12-21T15:04:04.513Z,8.10
2018-12-21T15:06:32.776Z,8.10
2018-12-21T15:09:01.741Z,8.10
2018-12-21T15:11:29.920Z,8.10
2018-12-21T15:13:58.576Z,8.10
2018-12-21T15:16:26.744Z,8.20
2018-12-21T15:18:55.052Z,8.10
2018-12-21T15:21:23.224Z,8.20
2018-12-21T15:23:51.399Z,8.20
2018-12-21T15:26:20.749Z,8.20
2018-12-21T15:28:49.162Z,8.20
2018-12-21T15:31:17.344Z,8.20
2018-12-21T15:33:45.533Z,8.10
2018-12-21T15:36:13.720Z,8.20
2018-12-21T15:38:41.888Z,8.20
2018-12-21T15:41:10.396Z,8.20
2018-12-21T15:43:38.786Z,8.20
2018-12-21T15:46:07.108Z,8.20
2018-12-21T15:48:35.292Z,8.30
2018-12-21T15:51:04.313Z,8.30
2018-12-21T15:53:32.500Z,8.30
2018-12-21T15:56:00.671Z,8.20
2018-12-21T15:58:28.856Z,8.20
2018-12-21T16:00:57.258Z,8.30
2018-12-21T16:03:25.455Z,8.20
2018-12-21T16:05:53.728Z,8.30
2018-12-21T16:08:22.177Z,8.30
2018-12-21T16:10:50.357Z,8.30
2018-12-21T16:13:18.536Z,8.30
2018-12-21T16:15:46.980Z,8.30
2018-12-21T16:18:15.514Z,8.30
2018-12-21T16:20:43.708Z,8.30
2018-12-21T16:23:11.939Z,8.40
2018-12-21T16:25:40.153Z,8.40
2018-12-21T16:28:08.836Z,8.40
2018-12-21T16:30:37.322Z,8.40
2018-12-21T16:33:05.764Z,8.30
2018-12-21T16:35:34.021Z,8.40
2018-12-21T16:38:02.420Z,8.40
2018-12-21T16:40:30.697Z,8.40
2018-12-21T16:42:58.860Z,8.40
2018-12-21T16:45:27.055Z,8.40
2018-12-21T16:47:55.276Z,8.50
2018-12-21T16:50:23.795Z,8.40
2018-12-21T16:52:51.985Z,8.40
2018-12-21T16:55:20.194Z,8.50
2018-12-21T16:57:48.538Z,8.50
2018-12-21T17:00:16.727Z,8.50
2018-12-21T17:02:45.072Z,8.50
2018-12-21T17:05:13.326Z,8.40
2018-12-21T17:07:41.620Z,8.50
2018-12-21T17:10:21.037Z,8.60
2018-12-21T17:12:49.382Z,8.60
2018-12-21T17:15:17.577Z,8.60
2018-12-21T17:17:45.973Z,8.50
2018-12-21T17:20:14.246Z,8.60
2018-12-21T17:22:42.444Z,8.60
2018-12-21T17:25:13.016Z,8.60
2018-12-21T17:27:41.248Z,8.60
2018-12-21T17:30:11.507Z,8.50
2018-12-21T17:32:40.430Z,8.60
2018-12-21T17:35:09.593Z,8.60
2018-12-21T17:37:38.760Z,8.60
2018-12-21T17:40:09.536Z,8.60
2018-12-21T17:42:37.817Z,8.70
2018-12-21T17:45:08.425Z,8.70
2018-12-21T17:47:36.664Z,8.70
2018-12-21T17:50:06.250Z,8.60
2018-12-21T17:52:34.558Z,8.70
2018-12-21T17:55:04.121Z,8.70
2018-12-21T17:57:32.455Z,8.80
2018-12-21T18:00:00.731Z,8.80
2018-12-21T18:02:29.643Z,8.90
2018-12-21T18:04:58.460Z,8.80
2018-12-21T18:07:26.745Z,8.80
2018-12-21T18:09:55.846Z,8.80
2018-12-21T18:12:24.095Z,8.80
2018-12-21T18:14:52.369Z,8.80
2018-12-21T18:17:21.305Z,8.80
2018-12-21T18:19:49.537Z,8.80
2018-12-21T18:22:20.476Z,8.80
2018-12-21T18:24:53.996Z,8.80
2018-12-21T18:27:22.283Z,8.80
2018-12-21T18:29:50.564Z,8.80
2018-12-21T18:32:26.026Z,8.90
2018-12-21T18:34:54.357Z,8.90
2018-12-21T18:37:22.572Z,8.90
2018-12-21T18:39:51.044Z,8.90
2018-12-21T18:42:19.953Z,8.80
2018-12-21T18:44:48.249Z,8.90
2018-12-21T18:47:16.447Z,8.90
2018-12-21T18:49:44.733Z,8.80
2018-12-21T18:52:12.966Z,8.80
2018-12-21T18:54:42.353Z,8.70
2018-12-21T18:57:14.000Z,8.80
2018-12-21T18:59:42.219Z,8.80
2018-12-21T19:02:10.535Z,8.80
2018-12-21T19:07:36.268Z,8.70
2018-12-21T19:10:05.153Z,8.70
2018-12-21T19:12:33.406Z,8.70
2018-12-21T19:15:03.273Z,8.60
2018-12-21T19:17:31.495Z,8.70
2018-12-21T19:19:59.938Z,8.70
2018-12-21T19:22:28.129Z,8.70
2018-12-21T19:24:56.434Z,8.70
2018-12-21T19:27:25.838Z,8.70
2018-12-21T19:29:54.042Z,8.70
2018-12-21T19:32:22.245Z,8.70
2018-12-21T19:34:51.420Z,8.70
2018-12-21T19:37:19.884Z,8.70
2018-12-21T19:39:48.325Z,8.60
2018-12-21T19:42:16.745Z,8.60
2018-12-21T19:44:44.965Z,8.60
2018-12-21T19:47:15.124Z,8.60
2018-12-21T19:49:43.592Z,8.50
2018-12-21T19:52:11.831Z,8.50
2018-12-21T19:54:40.036Z,8.50
2018-12-21T19:57:11.557Z,8.50
2018-12-21T19:59:39.865Z,8.50
2018-12-21T20:02:08.945Z,8.50
2018-12-21T20:04:38.085Z,8.60
2018-12-21T20:07:06.441Z,8.60
2018-12-21T20:09:34.649Z,8.80
2018-12-21T20:12:04.297Z,8.80
2018-12-21T20:14:32.572Z,8.90
2018-12-21T20:17:01.831Z,8.90
2018-12-21T20:19:30.277Z,8.90
2018-12-21T20:21:58.610Z,9.00
2018-12-21T20:24:31.711Z,9.00
2018-12-21T20:27:13.064Z,8.90
2018-12-21T20:29:35.794Z,8.90
2018-12-21T20:32:04.223Z,8.90
2018-12-21T20:34:33.098Z,8.90
2018-12-21T20:37:01.584Z,8.90
2018-12-21T20:39:30.163Z,8.90
2018-12-21T20:41:58.361Z,8.80
2018-12-21T20:44:27.287Z,8.80
2018-12-21T20:46:56.053Z,8.90
2018-12-21T20:49:24.274Z,8.90
2018-12-21T20:51:52.515Z,8.80
2018-12-21T20:54:20.810Z,8.80
2018-12-21T20:56:52.133Z,8.80
2018-12-21T20:59:23.073Z,8.80
2018-12-21T21:01:52.072Z,8.80
2018-12-21T21:04:20.284Z,8.80
2018-12-21T21:06:48.597Z,8.90
2018-12-21T21:09:17.910Z,8.90
2018-12-21T21:11:46.120Z,8.80
2018-12-21T21:14:15.723Z,8.80
2018-12-21T21:16:44.174Z,8.80
2018-12-21T21:19:12.469Z,8.70
2018-12-21T21:21:40.768Z,8.60
2018-12-21T21:24:09.019Z,8.60
2018-12-21T21:26:37.342Z,8.60
2018-12-21T21:29:05.694Z,8.60
2018-12-21T21:31:36.098Z,8.60
2018-12-21T21:34:04.306Z,8.60
2018-12-21T21:36:32.740Z,8.60
2018-12-21T21:39:01.966Z,8.70
2018-12-21T21:44:25.841Z,8.70
2018-12-21T21:46:54.073Z,8.60
2018-12-21T21:49:22.295Z,8.70
2018-12-21T21:51:50.505Z,8.60
2018-12-21T21:54:18.837Z,8.60
2018-12-21T21:56:47.222Z,8.60
2018-12-21T22:02:13.503Z,8.50
2018-12-21T22:04:41.707Z,8.50
2018-12-21T22:07:09.969Z,8.50
2018-12-21T22:09:38.187Z,8.50
2018-12-21T22:12:07.406Z,8.60
2018-12-21T22:14:39.561Z,8.60
2018-12-21T22:17:07.801Z,8.60
2018-12-21T22:19:36.008Z,8.60
2018-12-21T22:22:04.224Z,8.60
2018-12-21T22:24:32.521Z,8.70
2018-12-21T22:27:00.724Z,8.70
2018-12-21T22:29:28.925Z,8.70
2018-12-21T22:31:58.430Z,8.70
2018-12-21T22:34:26.679Z,8.60
2018-12-21T22:36:54.948Z,8.60
2018-12-21T22:39:23.269Z,8.60
2018-12-21T22:41:51.560Z,8.60
2018-12-21T22:44:23.921Z,8.50
2018-12-21T22:46:52.200Z,8.60
2018-12-21T22:49:20.411Z,8.50
2018-12-21T22:51:48.682Z,8.50
2018-12-21T22:54:17.332Z,8.60
2018-12-21T22:56:45.566Z,8.50
2018-12-21T22:59:13.778Z,8.50
2018-12-21T23:01:42.143Z,8.60
2018-12-21T23:04:10.750Z,8.50
2018-12-21T23:09:39.044Z,8.60
2018-12-21T23:12:13.724Z,8.60
2018-12-21T23:14:45.188Z,8.50
2018-12-21T23:17:14.552Z,8.50
2018-12-21T23:19:48.937Z,8.50
2018-12-21T23:22:18.526Z,8.50
2018-12-21T23:24:52.252Z,8.60
2018-12-21T23:27:27.019Z,8.60
2018-12-21T23:30:08.195Z,8.50
2018-12-21T23:32:39.780Z,8.60
2018-12-21T23:35:14.036Z,8.60
2018-12-21T23:37:47.909Z,8.60
2018-12-21T23:40:19.588Z,8.60
2018-12-21T23:42:51.749Z,8.70
2018-12-21T23:45:26.919Z,8.70
2018-12-21T23:47:58.250Z,8.70
2018-12-21T23:50:30.299Z,8.70
2018-12-21T23:53:01.873Z,8.70
2018-12-21T23:55:36.368Z,8.70
2018-12-21T23:58:13.663Z,8.60
